createdAt,value
2019-06-26T00:00:38.167Z,28.61
2019-06-26T00:01:38.157Z,28.59
2019-06-26T00:02:38.146Z,28.61
2019-06-26T00:03:38.160Z,28.62
2019-06-26T00:04:38.122Z,28.62
2019-06-26T00:05:38.119Z,28.68
2019-06-26T00:06:38.117Z,28.56
2019-06-26T00:07:38.087Z,28.57
2019-06-26T00:08:38.083Z,28.52
2019-06-26T00:09:38.093Z,28.50
2019-06-26T00:10:38.057Z,28.56
2019-06-26T00:11:38.045Z,28.49
2019-06-26T00:12:38.028Z,28.46
2019-06-26T00:13:38.055Z,28.38
2019-06-26T00:14:39.042Z,28.46
2019-06-26T00:15:37.994Z,28.47
2019-06-26T00:16:37.990Z,28.42
2019-06-26T00:17:37.980Z,28.35
2019-06-26T00:18:37.967Z,28.35
2019-06-26T00:19:37.979Z,28.40
2019-06-26T00:20:37.953Z,28.43
2019-06-26T00:21:37.949Z,28.49
2019-06-26T00:22:37.919Z,28.43
2019-06-26T00:23:37.911Z,28.43
2019-06-26T00:24:37.929Z,28.46
2019-06-26T00:25:37.917Z,28.52
2019-06-26T00:26:37.905Z,28.46
2019-06-26T00:27:37.866Z,28.31
2019-06-26T00:28:37.862Z,28.22
2019-06-26T00:29:37.867Z,28.25
2019-06-26T00:30:37.836Z,28.31
2019-06-26T00:31:37.832Z,28.28
2019-06-26T00:32:37.809Z,28.24
2019-06-26T00:33:37.810Z,28.22
2019-06-26T00:34:37.882Z,28.16
2019-06-26T00:35:37.794Z,28.16
2019-06-26T00:36:37.771Z,28.28
2019-06-26T00:37:37.760Z,28.20
2019-06-26T00:38:40.091Z,28.31
2019-06-26T00:39:37.788Z,28.31
2019-06-26T00:40:37.721Z,28.24
2019-06-26T00:41:37.723Z,28.17
2019-06-26T00:42:37.703Z,28.15
2019-06-26T00:43:42.381Z,28.03
2019-06-26T00:44:38.710Z,27.90
2019-06-26T00:45:37.671Z,27.94
2019-06-26T00:46:37.656Z,27.90
2019-06-26T00:47:37.648Z,27.90
2019-06-26T00:48:37.648Z,27.85
2019-06-26T00:49:37.663Z,27.80
2019-06-26T00:50:37.634Z,27.80
2019-06-26T00:51:37.613Z,27.79
2019-06-26T00:52:37.594Z,27.82
2019-06-26T00:53:37.655Z,27.87
2019-06-26T00:54:37.624Z,27.98
2019-06-26T00:55:37.574Z,27.87
2019-06-26T00:56:37.556Z,27.87
2019-06-26T00:57:37.595Z,27.79
2019-06-26T00:58:37.536Z,27.82
2019-06-26T00:59:37.551Z,27.70
2019-06-26T01:00:37.509Z,27.69
2019-06-26T01:01:37.505Z,27.60
2019-06-26T01:02:37.566Z,27.49
2019-06-26T01:03:37.487Z,27.44
2019-06-26T01:04:37.502Z,27.49
2019-06-26T01:05:37.469Z,27.44
2019-06-26T01:06:37.463Z,27.42
2019-06-26T01:07:37.438Z,27.44
2019-06-26T01:08:37.424Z,27.47
2019-06-26T01:09:37.416Z,27.38
2019-06-26T01:10:37.438Z,27.45
2019-06-26T01:11:37.396Z,27.44
2019-06-26T01:12:37.382Z,27.42
2019-06-26T01:13:37.378Z,27.41
2019-06-26T01:14:37.360Z,27.38
2019-06-26T01:15:37.369Z,27.38
2019-06-26T01:16:37.335Z,27.35
2019-06-26T01:17:37.383Z,27.35
2019-06-26T01:18:37.335Z,27.38
2019-06-26T01:19:37.316Z,27.40
2019-06-26T01:20:37.325Z,27.37
2019-06-26T01:21:37.296Z,27.38
2019-06-26T01:22:37.335Z,27.47
2019-06-26T01:23:37.263Z,27.49
2019-06-26T01:24:37.252Z,27.41
2019-06-26T01:25:37.270Z,27.45
2019-06-26T01:26:37.228Z,27.44
2019-06-26T01:27:37.227Z,27.45
2019-06-26T01:28:37.209Z,27.30
2019-06-26T01:29:37.229Z,27.27
2019-06-26T01:30:37.220Z,27.27
2019-06-26T01:31:37.190Z,27.27
2019-06-26T01:32:37.169Z,27.31
2019-06-26T01:33:37.153Z,27.42
2019-06-26T01:34:37.143Z,27.34
2019-06-26T01:35:37.163Z,27.32
2019-06-26T01:36:37.132Z,27.22
2019-06-26T01:37:37.144Z,27.22
2019-06-26T01:38:37.101Z,27.22
2019-06-26T01:39:37.103Z,27.15
2019-06-26T01:40:37.127Z,27.17
2019-06-26T01:41:37.078Z,27.27
2019-06-26T01:42:37.063Z,27.20
2019-06-26T01:43:37.048Z,27.17
2019-06-26T01:44:37.038Z,27.19
2019-06-26T01:45:37.103Z,27.16
2019-06-26T01:46:37.043Z,27.16
2019-06-26T01:47:37.011Z,27.15
2019-06-26T01:48:36.998Z,27.12
2019-06-26T01:49:36.986Z,27.07
2019-06-26T01:50:36.975Z,27.08
2019-06-26T01:51:37.009Z,27.10
2019-06-26T01:52:36.955Z,27.07
2019-06-26T01:53:36.942Z,27.07
2019-06-26T01:54:36.982Z,27.12
2019-06-26T01:55:36.920Z,27.08
2019-06-26T01:56:36.944Z,27.07
2019-06-26T01:57:36.901Z,27.04
2019-06-26T01:58:36.900Z,26.97
2019-06-26T01:59:36.892Z,27.05
2019-06-26T02:00:36.873Z,27.03
2019-06-26T02:01:36.886Z,26.95
2019-06-26T02:02:36.849Z,26.90
2019-06-26T02:03:36.838Z,27.03
2019-06-26T02:04:36.834Z,26.88
2019-06-26T02:05:36.823Z,26.86
2019-06-26T02:06:36.836Z,26.82
2019-06-26T02:07:36.795Z,26.64
2019-06-26T02:08:36.787Z,26.67
2019-06-26T02:09:36.779Z,26.68
2019-06-26T02:10:36.773Z,26.68
2019-06-26T02:11:36.789Z,26.64
2019-06-26T02:12:36.744Z,26.63
2019-06-26T02:13:36.735Z,26.57
2019-06-26T02:14:36.725Z,26.56
2019-06-26T02:15:36.710Z,26.51
2019-06-26T02:16:36.748Z,26.48
2019-06-26T02:17:36.808Z,26.53
2019-06-26T02:18:36.676Z,26.57
2019-06-26T02:19:36.676Z,26.57
2019-06-26T02:20:36.655Z,26.60
2019-06-26T02:21:36.670Z,26.63
2019-06-26T02:22:36.639Z,26.78
2019-06-26T02:23:36.663Z,26.70
2019-06-26T02:24:36.608Z,26.79
2019-06-26T02:25:36.611Z,26.79
2019-06-26T02:26:36.695Z,26.71
2019-06-26T02:27:36.635Z,26.67
2019-06-26T02:28:36.567Z,26.63
2019-06-26T02:29:36.557Z,26.52
2019-06-26T02:30:36.548Z,26.67
2019-06-26T02:31:36.533Z,26.58
2019-06-26T02:32:36.747Z,26.53
2019-06-26T02:33:36.514Z,26.51
2019-06-26T02:34:36.506Z,26.49
2019-06-26T02:35:36.490Z,26.48
2019-06-26T02:36:36.488Z,26.31
2019-06-26T02:37:36.496Z,26.38
2019-06-26T02:38:36.470Z,26.34
2019-06-26T02:39:36.457Z,26.38
2019-06-26T02:40:36.477Z,26.38
2019-06-26T02:41:36.430Z,26.26
2019-06-26T02:42:36.540Z,26.28
2019-06-26T02:43:36.400Z,26.39
2019-06-26T02:44:52.026Z,26.26
2019-06-26T02:45:37.380Z,26.33
2019-06-26T02:46:36.375Z,26.19
2019-06-26T02:47:36.383Z,26.20
2019-06-26T02:48:36.346Z,26.27
2019-06-26T02:49:36.340Z,26.05
2019-06-26T02:50:36.352Z,26.15
2019-06-26T02:51:36.322Z,26.16
2019-06-26T02:52:36.334Z,26.01
2019-06-26T02:53:36.290Z,25.98
2019-06-26T02:54:36.287Z,26.00
2019-06-26T02:55:36.297Z,25.93
2019-06-26T02:56:36.261Z,25.95
2019-06-26T02:57:36.271Z,25.81
2019-06-26T02:58:36.242Z,25.89
2019-06-26T02:59:36.221Z,25.82
2019-06-26T03:00:36.213Z,25.86
2019-06-26T03:01:36.207Z,25.88
2019-06-26T03:02:36.234Z,25.89
2019-06-26T03:03:36.182Z,25.93
2019-06-26T03:04:36.182Z,26.01
2019-06-26T03:05:36.156Z,25.95
2019-06-26T03:06:36.150Z,26.11
2019-06-26T03:07:36.161Z,26.20
2019-06-26T03:08:36.125Z,26.07
2019-06-26T03:09:36.133Z,26.15
2019-06-26T03:10:36.103Z,26.15
2019-06-26T03:11:36.089Z,26.12
2019-06-26T03:12:36.111Z,26.20
2019-06-26T03:13:36.096Z,26.20
2019-06-26T03:14:36.061Z,26.26
2019-06-26T03:15:36.057Z,26.27
2019-06-26T03:16:36.035Z,26.20
2019-06-26T03:17:36.023Z,26.20
2019-06-26T03:18:36.040Z,26.26
2019-06-26T03:19:36.009Z,26.16
2019-06-26T03:20:35.990Z,26.10
2019-06-26T03:21:35.979Z,26.07
2019-06-26T03:22:35.982Z,25.95
2019-06-26T03:23:35.988Z,25.90
2019-06-26T03:24:35.946Z,25.82
2019-06-26T03:25:35.982Z,25.85
2019-06-26T03:26:35.927Z,25.73
2019-06-26T03:27:35.916Z,25.66
2019-06-26T03:28:35.929Z,25.58
2019-06-26T03:29:35.889Z,25.64
2019-06-26T03:30:35.887Z,25.67
2019-06-26T03:31:35.898Z,25.67
2019-06-26T03:32:35.871Z,25.61
2019-06-26T03:33:35.874Z,25.61
2019-06-26T03:34:35.861Z,25.53
2019-06-26T03:35:35.856Z,25.55
2019-06-26T03:36:35.810Z,25.41
2019-06-26T03:37:35.807Z,25.52
2019-06-26T03:38:35.797Z,25.51
2019-06-26T03:39:35.783Z,25.36
2019-06-26T03:40:35.802Z,25.43
2019-06-26T03:41:35.760Z,25.28
2019-06-26T03:42:35.747Z,25.30
2019-06-26T03:43:35.899Z,25.36
2019-06-26T03:44:35.760Z,25.45
2019-06-26T03:45:35.712Z,25.45
2019-06-26T03:46:35.701Z,25.37
2019-06-26T03:47:35.690Z,25.28
2019-06-26T03:48:35.679Z,25.26
2019-06-26T03:49:35.793Z,25.23
2019-06-26T03:50:35.695Z,25.31
2019-06-26T03:51:35.653Z,25.33
2019-06-26T03:52:35.632Z,25.33
2019-06-26T03:53:35.627Z,25.37
2019-06-26T03:54:35.640Z,25.45
2019-06-26T03:55:35.616Z,25.41
2019-06-26T03:56:35.589Z,25.49
2019-06-26T03:57:35.582Z,25.58
2019-06-26T03:58:35.565Z,25.56
2019-06-26T03:59:35.584Z,25.53
2019-06-26T04:00:35.543Z,25.53
2019-06-26T04:01:35.536Z,25.59
2019-06-26T04:02:35.519Z,25.67
2019-06-26T04:03:35.513Z,25.73
2019-06-26T04:04:35.530Z,25.58
2019-06-26T04:05:35.734Z,25.55
2019-06-26T04:06:35.485Z,25.30
2019-06-26T04:07:35.467Z,25.18
2019-06-26T04:08:35.454Z,25.26
2019-06-26T04:09:35.443Z,25.28
2019-06-26T04:10:35.454Z,25.08
2019-06-26T04:11:35.426Z,25.15
2019-06-26T04:12:35.413Z,25.06
2019-06-26T04:13:35.399Z,24.93
2019-06-26T04:14:35.420Z,24.96
2019-06-26T04:15:42.168Z,24.96
2019-06-26T04:16:36.374Z,24.97
2019-06-26T04:17:35.362Z,24.93
2019-06-26T04:18:35.349Z,24.97
2019-06-26T04:19:35.330Z,24.94
2019-06-26T04:20:35.346Z,24.85
2019-06-26T04:21:35.310Z,24.89
2019-06-26T04:22:35.297Z,24.89
2019-06-26T04:23:35.287Z,24.84
2019-06-26T04:24:35.288Z,24.89
2019-06-26T04:25:38.075Z,24.97
2019-06-26T04:26:35.258Z,25.06
2019-06-26T04:27:35.256Z,25.03
2019-06-26T04:28:35.243Z,25.03
2019-06-26T04:29:35.220Z,25.00
2019-06-26T04:30:35.242Z,24.96
2019-06-26T04:31:35.204Z,24.96
2019-06-26T04:32:35.191Z,24.91
2019-06-26T04:33:35.183Z,24.89
2019-06-26T04:34:35.196Z,24.81
2019-06-26T04:35:35.185Z,24.84
2019-06-26T04:36:35.152Z,24.85
2019-06-26T04:37:35.143Z,24.81
2019-06-26T04:38:35.126Z,24.84
2019-06-26T04:39:35.113Z,24.85
2019-06-26T04:40:35.101Z,24.84
2019-06-26T04:41:35.120Z,24.94
2019-06-26T04:42:35.114Z,24.91
2019-06-26T04:43:35.076Z,25.12
2019-06-26T04:44:35.067Z,25.12
2019-06-26T04:45:35.096Z,25.04
2019-06-26T04:46:35.063Z,25.01
2019-06-26T04:47:35.027Z,25.00
2019-06-26T04:48:35.015Z,25.11
2019-06-26T04:49:35.010Z,25.06
2019-06-26T04:50:34.988Z,25.18
2019-06-26T04:51:35.019Z,25.12
2019-06-26T04:52:34.966Z,25.14
2019-06-26T04:53:34.956Z,25.18
2019-06-26T04:54:34.943Z,25.16
2019-06-26T04:55:34.938Z,25.11
2019-06-26T04:56:34.960Z,25.15
2019-06-26T04:57:34.915Z,25.22
2019-06-26T04:58:34.918Z,25.23
2019-06-26T04:59:34.888Z,25.09
2019-06-26T05:00:34.885Z,25.01
2019-06-26T05:01:34.894Z,25.08
2019-06-26T05:02:34.854Z,25.15
2019-06-26T05:03:34.906Z,25.09
2019-06-26T05:04:34.843Z,25.18
2019-06-26T05:05:39.535Z,25.26
2019-06-26T05:06:35.844Z,25.26
2019-06-26T05:07:34.833Z,25.23
2019-06-26T05:08:34.792Z,25.14
2019-06-26T05:09:34.782Z,25.16
2019-06-26T05:10:34.770Z,24.99
2019-06-26T05:11:34.759Z,24.97
2019-06-26T05:12:34.778Z,25.04
2019-06-26T05:13:34.839Z,24.91
2019-06-26T05:14:34.732Z,25.00
2019-06-26T05:15:34.714Z,25.06
2019-06-26T05:16:34.741Z,25.00
2019-06-26T05:17:34.736Z,24.99
2019-06-26T05:18:34.691Z,25.03
2019-06-26T05:19:34.670Z,25.06
2019-06-26T05:20:34.676Z,25.09
2019-06-26T05:21:34.650Z,25.08
2019-06-26T05:22:34.680Z,25.11
2019-06-26T05:23:34.633Z,25.19
2019-06-26T05:24:34.618Z,25.26
2019-06-26T05:25:34.616Z,25.18
2019-06-26T05:26:34.595Z,25.43
2019-06-26T05:27:34.613Z,25.41
2019-06-26T05:28:34.570Z,25.45
2019-06-26T05:29:34.562Z,25.37
2019-06-26T05:30:34.551Z,25.36
2019-06-26T05:31:34.553Z,25.37
2019-06-26T05:32:34.552Z,25.30
2019-06-26T05:33:34.517Z,25.30
2019-06-26T05:34:34.513Z,25.28
2019-06-26T05:35:35.311Z,25.28
2019-06-26T05:36:34.480Z,25.27
2019-06-26T05:37:34.607Z,25.41
2019-06-26T05:38:34.457Z,25.41
2019-06-26T05:39:34.456Z,25.33
2019-06-26T05:40:34.434Z,25.30
2019-06-26T05:41:34.448Z,25.31
2019-06-26T05:42:34.446Z,25.33
2019-06-26T05:43:34.422Z,25.36
2019-06-26T05:44:34.392Z,25.45
2019-06-26T05:45:34.393Z,25.49
2019-06-26T05:46:34.380Z,25.52
2019-06-26T05:47:34.407Z,25.58
2019-06-26T05:48:34.348Z,25.56
2019-06-26T05:49:34.346Z,25.53
2019-06-26T05:50:34.335Z,25.56
2019-06-26T05:51:34.317Z,25.58
2019-06-26T05:52:34.344Z,25.67
2019-06-26T05:53:34.301Z,25.61
2019-06-26T05:54:34.286Z,25.58
2019-06-26T05:55:34.269Z,25.55
2019-06-26T05:56:34.269Z,25.49
2019-06-26T05:57:34.260Z,25.63
2019-06-26T05:58:34.277Z,25.61
2019-06-26T05:59:34.223Z,25.58
2019-06-26T06:00:34.241Z,25.64
2019-06-26T06:01:34.205Z,25.61
2019-06-26T06:02:34.244Z,25.67
2019-06-26T06:03:34.208Z,25.73
2019-06-26T06:04:34.176Z,25.77
2019-06-26T06:05:34.183Z,25.82
2019-06-26T06:06:41.803Z,25.68
2019-06-26T06:07:35.135Z,25.74
2019-06-26T06:08:34.154Z,25.74
2019-06-26T06:09:34.119Z,25.66
2019-06-26T06:10:34.108Z,25.68
2019-06-26T06:11:34.119Z,25.75
2019-06-26T06:12:34.090Z,25.68
2019-06-26T06:13:34.218Z,25.71
2019-06-26T06:14:34.062Z,25.73
2019-06-26T06:15:34.064Z,25.85
2019-06-26T06:16:46.750Z,25.75
2019-06-26T06:17:35.025Z,25.89
2019-06-26T06:18:34.057Z,25.86
2019-06-26T06:19:34.005Z,25.85
2019-06-26T06:20:34.002Z,25.82
2019-06-26T06:21:33.989Z,25.88
2019-06-26T06:22:33.981Z,25.88
2019-06-26T06:23:33.992Z,25.85
2019-06-26T06:24:33.950Z,25.88
2019-06-26T06:25:33.949Z,25.74
2019-06-26T06:26:33.931Z,25.75
2019-06-26T06:27:33.958Z,25.66
2019-06-26T06:28:33.951Z,25.73
2019-06-26T06:29:33.892Z,25.58
2019-06-26T06:30:33.883Z,25.55
2019-06-26T06:31:33.874Z,25.58
2019-06-26T06:32:33.860Z,25.59
2019-06-26T06:33:33.874Z,25.74
2019-06-26T06:34:33.863Z,25.85
2019-06-26T06:35:33.841Z,25.85
2019-06-26T06:36:33.819Z,25.85
2019-06-26T06:37:33.809Z,25.83
2019-06-26T06:38:33.797Z,25.83
2019-06-26T06:39:33.822Z,25.93
2019-06-26T06:40:33.774Z,25.93
2019-06-26T06:41:33.781Z,26.01
2019-06-26T06:42:33.763Z,26.07
2019-06-26T06:43:33.765Z,26.07
2019-06-26T06:44:33.753Z,26.20
2019-06-26T06:45:33.715Z,26.16
2019-06-26T06:46:33.706Z,26.16
2019-06-26T06:47:33.698Z,26.11
2019-06-26T06:48:33.685Z,26.04
2019-06-26T06:49:33.733Z,26.16
2019-06-26T06:50:33.662Z,26.23
2019-06-26T06:51:33.654Z,26.10
2019-06-26T06:52:33.655Z,26.24
2019-06-26T06:53:33.640Z,26.19
2019-06-26T06:54:33.725Z,26.23
2019-06-26T06:55:33.609Z,26.16
2019-06-26T06:56:33.610Z,26.21
2019-06-26T06:57:33.588Z,26.39
2019-06-26T06:58:33.589Z,26.38
2019-06-26T06:59:33.601Z,26.33
2019-06-26T07:00:33.581Z,26.27
2019-06-26T07:01:33.543Z,26.23
2019-06-26T07:02:33.577Z,26.33
2019-06-26T07:03:33.527Z,26.36
2019-06-26T07:04:33.555Z,26.42
2019-06-26T07:05:33.524Z,26.45
2019-06-26T07:06:33.525Z,26.33
2019-06-26T07:07:33.473Z,26.30
2019-06-26T07:08:33.474Z,26.23
2019-06-26T07:09:33.472Z,26.19
2019-06-26T07:10:33.490Z,26.38
2019-06-26T07:11:33.430Z,26.45
2019-06-26T07:12:33.699Z,26.57
2019-06-26T07:13:33.539Z,26.56
2019-06-26T07:14:33.398Z,26.57
2019-06-26T07:15:33.412Z,26.52
2019-06-26T07:16:33.377Z,26.58
2019-06-26T07:17:33.370Z,26.61
2019-06-26T07:18:33.365Z,26.64
2019-06-26T07:19:33.341Z,26.51
2019-06-26T07:20:33.357Z,26.43
2019-06-26T07:21:33.337Z,26.43
2019-06-26T07:22:33.314Z,26.30
2019-06-26T07:23:33.385Z,26.41
2019-06-26T07:24:33.300Z,26.41
2019-06-26T07:25:33.300Z,26.52
2019-06-26T07:26:33.262Z,26.52
2019-06-26T07:27:33.261Z,26.68
2019-06-26T07:28:33.252Z,26.57
2019-06-26T07:29:33.226Z,26.63
2019-06-26T07:30:33.273Z,26.67
2019-06-26T07:31:33.206Z,26.75
2019-06-26T07:32:33.197Z,26.79
2019-06-26T07:33:33.193Z,26.85
2019-06-26T07:34:33.173Z,26.85
2019-06-26T07:35:33.191Z,26.88
2019-06-26T07:36:33.174Z,26.83
2019-06-26T07:37:33.136Z,26.88
2019-06-26T07:38:33.133Z,26.79
2019-06-26T07:39:33.124Z,26.82
2019-06-26T07:40:33.134Z,26.82
2019-06-26T07:41:33.130Z,26.68
2019-06-26T07:42:33.088Z,26.63
2019-06-26T07:43:33.085Z,26.80
2019-06-26T07:44:33.062Z,26.89
2019-06-26T07:45:33.064Z,27.04
2019-06-26T07:46:33.069Z,27.08
2019-06-26T07:47:43.134Z,27.20
2019-06-26T07:48:34.027Z,27.27
2019-06-26T07:49:33.010Z,27.31
2019-06-26T07:50:33.001Z,27.25
2019-06-26T07:51:33.131Z,27.38
2019-06-26T07:52:32.974Z,27.22
2019-06-26T07:53:32.963Z,27.19
2019-06-26T07:54:32.953Z,27.20
2019-06-26T07:55:32.941Z,27.16
2019-06-26T07:56:32.956Z,27.23
2019-06-26T07:57:32.948Z,27.03
2019-06-26T07:58:32.904Z,27.16
2019-06-26T07:59:33.003Z,27.15
2019-06-26T08:00:32.890Z,27.23
2019-06-26T08:01:32.909Z,27.32
2019-06-26T08:02:32.864Z,27.34
2019-06-26T08:03:32.859Z,27.34
2019-06-26T08:04:32.844Z,27.22
2019-06-26T08:05:32.833Z,27.22
2019-06-26T08:06:32.848Z,27.31
2019-06-26T08:07:32.828Z,27.26
2019-06-26T08:08:32.799Z,27.45
2019-06-26T08:09:32.790Z,27.44
2019-06-26T08:10:32.785Z,27.53
2019-06-26T08:11:32.794Z,27.58
2019-06-26T08:12:32.760Z,27.49
2019-06-26T08:13:32.742Z,27.44
2019-06-26T08:14:32.735Z,27.35
2019-06-26T08:15:32.746Z,27.41
2019-06-26T08:16:34.507Z,27.42
2019-06-26T08:17:32.705Z,27.60
2019-06-26T08:18:32.704Z,27.75
2019-06-26T08:19:32.691Z,27.61
2019-06-26T08:20:32.672Z,27.69
2019-06-26T08:21:32.692Z,27.85
2019-06-26T08:22:32.673Z,27.70
2019-06-26T08:23:32.639Z,27.73
2019-06-26T08:24:32.650Z,27.58
2019-06-26T08:25:32.617Z,27.60
2019-06-26T08:26:32.640Z,27.76
2019-06-26T08:27:32.614Z,27.78
2019-06-26T08:28:32.582Z,27.90
2019-06-26T08:29:32.570Z,27.73
2019-06-26T08:30:32.563Z,27.79
2019-06-26T08:31:32.554Z,27.70
2019-06-26T08:32:32.569Z,27.76
2019-06-26T08:33:32.533Z,27.75
2019-06-26T08:34:32.523Z,27.80
2019-06-26T08:35:32.528Z,27.88
2019-06-26T08:36:32.497Z,27.78
2019-06-26T08:37:32.529Z,27.90
2019-06-26T08:38:32.479Z,27.88
2019-06-26T08:39:32.476Z,28.00
2019-06-26T08:40:32.463Z,27.87
2019-06-26T08:41:32.450Z,28.03
2019-06-26T08:42:32.479Z,27.93
2019-06-26T08:43:32.447Z,28.00
2019-06-26T08:44:32.410Z,28.05
2019-06-26T08:45:32.406Z,27.98
2019-06-26T08:46:32.414Z,27.98
2019-06-26T08:47:32.434Z,28.03
2019-06-26T08:48:39.355Z,28.00
2019-06-26T08:49:33.355Z,28.10
2019-06-26T08:50:32.350Z,28.12
2019-06-26T08:51:32.345Z,28.07
2019-06-26T08:52:32.379Z,28.15
2019-06-26T08:53:32.340Z,28.06
2019-06-26T08:54:32.331Z,28.15
2019-06-26T08:55:32.307Z,28.13
2019-06-26T08:56:32.287Z,28.34
2019-06-26T08:57:32.289Z,28.34
2019-06-26T08:58:32.296Z,28.25
2019-06-26T08:59:32.254Z,28.27
2019-06-26T09:00:32.251Z,28.25
2019-06-26T09:01:32.246Z,28.31
2019-06-26T09:02:32.222Z,28.19
2019-06-26T09:03:32.239Z,28.31
2019-06-26T09:04:32.201Z,28.28
2019-06-26T09:05:46.927Z,28.34
2019-06-26T09:06:33.205Z,28.27
2019-06-26T09:07:32.191Z,28.28
2019-06-26T09:08:32.333Z,28.37
2019-06-26T09:09:32.154Z,28.44
2019-06-26T09:10:32.139Z,28.49
2019-06-26T09:11:32.127Z,28.40
2019-06-26T09:12:32.130Z,28.44
2019-06-26T09:13:32.134Z,28.42
2019-06-26T09:14:32.101Z,28.46
2019-06-26T09:15:32.080Z,28.50
2019-06-26T09:16:32.077Z,28.57
2019-06-26T09:17:32.064Z,28.62
2019-06-26T09:18:35.943Z,28.69
2019-06-26T09:19:32.050Z,28.74
2019-06-26T09:20:32.053Z,28.71
2019-06-26T09:21:32.023Z,28.69
2019-06-26T09:22:32.013Z,28.65
2019-06-26T09:23:32.026Z,28.64
2019-06-26T09:24:31.986Z,28.66
2019-06-26T09:25:31.975Z,28.57
2019-06-26T09:26:31.968Z,28.50
2019-06-26T09:27:31.955Z,28.42
2019-06-26T09:28:31.966Z,28.34
2019-06-26T09:29:31.944Z,28.22
2019-06-26T09:30:31.919Z,28.32
2019-06-26T09:31:31.921Z,28.30
2019-06-26T09:32:31.901Z,28.37
2019-06-26T09:33:32.615Z,28.54
2019-06-26T09:34:31.886Z,28.49
2019-06-26T09:35:31.861Z,28.49
2019-06-26T09:36:31.854Z,28.61
2019-06-26T09:37:31.839Z,28.54
2019-06-26T09:38:31.861Z,28.54
2019-06-26T09:39:31.817Z,28.47
2019-06-26T09:40:32.230Z,28.50
2019-06-26T09:41:31.795Z,28.56
2019-06-26T09:42:31.795Z,28.54
2019-06-26T09:43:31.790Z,28.52
2019-06-26T09:44:31.789Z,28.52
2019-06-26T09:45:31.775Z,28.49
2019-06-26T09:46:31.745Z,28.52
2019-06-26T09:47:31.745Z,28.46
2019-06-26T09:48:31.716Z,28.56
2019-06-26T09:49:31.758Z,28.49
2019-06-26T09:50:31.722Z,28.30
2019-06-26T09:51:31.689Z,28.43
2019-06-26T09:52:31.673Z,28.43
2019-06-26T09:53:45.968Z,28.69
2019-06-26T09:54:32.705Z,28.57
2019-06-26T09:55:31.639Z,28.74
2019-06-26T09:56:31.653Z,28.83
2019-06-26T09:57:31.618Z,28.86
2019-06-26T09:58:31.631Z,28.89
2019-06-26T09:59:31.717Z,28.80
2019-06-26T10:00:31.610Z,28.59
2019-06-26T10:01:31.589Z,28.50
2019-06-26T10:02:31.564Z,28.50
2019-06-26T10:03:31.555Z,28.53
2019-06-26T10:04:31.580Z,28.47
2019-06-26T10:05:31.541Z,28.49
2019-06-26T10:06:31.527Z,28.44
2019-06-26T10:07:31.515Z,28.53
2019-06-26T10:08:31.521Z,28.64
2019-06-26T10:09:31.496Z,28.61
2019-06-26T10:10:31.531Z,28.74
2019-06-26T10:11:31.465Z,28.64
2019-06-26T10:12:31.461Z,28.69
2019-06-26T10:13:31.451Z,28.83
2019-06-26T10:14:46.537Z,28.94
2019-06-26T10:15:32.503Z,28.94
2019-06-26T10:16:31.416Z,29.12
2019-06-26T10:17:31.408Z,29.18
2019-06-26T10:18:31.396Z,29.25
2019-06-26T10:19:31.391Z,29.33
2019-06-26T10:20:31.405Z,29.39
2019-06-26T10:21:31.356Z,29.24
2019-06-26T10:22:31.363Z,29.12
2019-06-26T10:23:31.336Z,29.19
2019-06-26T10:24:31.321Z,29.04
2019-06-26T10:25:31.364Z,29.02
2019-06-26T10:26:32.463Z,28.96
2019-06-26T10:27:31.294Z,29.00
2019-06-26T10:28:31.281Z,28.91
2019-06-26T10:29:31.276Z,28.87
2019-06-26T10:30:31.285Z,29.03
2019-06-26T10:31:31.268Z,29.15
2019-06-26T10:32:31.249Z,29.17
2019-06-26T10:33:31.269Z,29.04
2019-06-26T10:34:31.213Z,28.98
2019-06-26T10:35:31.212Z,29.00
2019-06-26T10:36:31.217Z,28.93
2019-06-26T10:37:31.176Z,29.09
2019-06-26T10:38:31.171Z,29.27
2019-06-26T10:39:31.165Z,29.28
2019-06-26T10:40:31.179Z,29.33
2019-06-26T10:41:31.146Z,29.34
2019-06-26T10:42:31.148Z,29.19
2019-06-26T10:43:31.116Z,29.21
2019-06-26T10:44:31.164Z,29.27
2019-06-26T10:45:31.169Z,29.25
2019-06-26T10:46:31.112Z,29.27
2019-06-26T10:47:31.486Z,29.22
2019-06-26T10:48:31.056Z,29.27
2019-06-26T10:49:31.039Z,29.31
2019-06-26T10:50:31.061Z,29.28
2019-06-26T10:51:31.053Z,29.22
2019-06-26T10:52:31.016Z,29.18
2019-06-26T10:53:31.010Z,29.22
2019-06-26T10:54:30.987Z,29.13
2019-06-26T10:55:30.982Z,29.07
2019-06-26T10:56:31.000Z,29.12
2019-06-26T10:57:30.973Z,29.10
2019-06-26T10:58:30.946Z,29.09
2019-06-26T10:59:30.932Z,29.00
2019-06-26T11:00:30.942Z,28.81
2019-06-26T11:01:30.934Z,28.75
2019-06-26T11:02:30.912Z,28.57
2019-06-26T11:03:30.890Z,28.81
2019-06-26T11:04:30.872Z,28.86
2019-06-26T11:05:30.875Z,28.81
2019-06-26T11:06:30.997Z,28.71
2019-06-26T11:07:30.880Z,28.71
2019-06-26T11:08:30.832Z,28.65
2019-06-26T11:09:30.822Z,28.64
2019-06-26T11:10:30.823Z,28.56
2019-06-26T11:11:30.801Z,28.34
2019-06-26T11:12:30.835Z,28.20
2019-06-26T11:13:30.786Z,28.47
2019-06-26T11:14:30.789Z,28.61
2019-06-26T11:15:30.782Z,28.77
2019-06-26T11:16:30.832Z,28.71
2019-06-26T11:17:30.759Z,28.66
2019-06-26T11:18:30.745Z,28.61
2019-06-26T11:19:43.220Z,28.71
2019-06-26T11:20:31.707Z,28.65
2019-06-26T11:21:30.692Z,28.59
2019-06-26T11:22:30.717Z,28.64
2019-06-26T11:23:30.670Z,28.80
2019-06-26T11:24:30.716Z,28.93
2019-06-26T11:25:30.653Z,29.10
2019-06-26T11:26:30.635Z,29.15
2019-06-26T11:27:30.659Z,29.27
2019-06-26T11:28:30.618Z,29.09
2019-06-26T11:29:30.599Z,29.04
2019-06-26T11:30:30.591Z,29.06
2019-06-26T11:32:31.725Z,28.93
2019-06-26T11:33:30.578Z,29.17
2019-06-26T11:34:30.579Z,29.15
2019-06-26T11:35:30.587Z,29.28
2019-06-26T11:36:30.536Z,29.41
2019-06-26T11:37:30.548Z,29.37
2019-06-26T11:38:30.534Z,29.47
2019-06-26T11:39:30.495Z,29.65
2019-06-26T11:40:30.489Z,29.76
2019-06-26T11:41:30.467Z,29.93
2019-06-26T11:42:32.808Z,29.91
2019-06-26T11:43:30.447Z,29.76
2019-06-26T11:44:30.435Z,29.29
2019-06-26T11:45:30.429Z,29.18
2019-06-26T11:46:32.432Z,29.03
2019-06-26T11:47:30.463Z,28.98
2019-06-26T11:48:30.414Z,28.91
2019-06-26T11:49:30.385Z,29.12
2019-06-26T11:50:30.372Z,29.19
2019-06-26T11:51:30.354Z,29.43
2019-06-26T11:52:30.375Z,29.54
2019-06-26T11:53:30.369Z,29.62
2019-06-26T11:55:31.465Z,29.77
2019-06-26T11:56:30.306Z,29.54
2019-06-26T11:57:30.299Z,29.56
2019-06-26T11:58:30.299Z,29.49
2019-06-26T11:59:30.268Z,29.49
2019-06-26T12:00:30.888Z,29.65
2019-06-26T12:01:30.243Z,29.96
2019-06-26T12:02:30.232Z,30.15
2019-06-26T12:03:30.256Z,30.29
2019-06-26T12:04:30.209Z,30.30
2019-06-26T12:05:30.203Z,30.36
2019-06-26T12:06:30.190Z,30.13
2019-06-26T12:07:30.219Z,30.15
2019-06-26T12:08:30.198Z,30.28
2019-06-26T12:09:30.163Z,30.32
2019-06-26T12:10:30.150Z,30.24
2019-06-26T12:11:30.129Z,30.33
2019-06-26T12:13:33.417Z,30.64
2019-06-26T12:14:30.103Z,30.59
2019-06-26T12:15:30.112Z,30.48
2019-06-26T12:16:30.079Z,30.52
2019-06-26T12:17:30.077Z,30.51
2019-06-26T12:18:30.105Z,30.37
2019-06-26T12:19:30.040Z,30.40
2019-06-26T12:20:30.052Z,30.53
2019-06-26T12:21:30.021Z,30.64
2019-06-26T12:22:30.014Z,30.78
2019-06-26T12:23:30.075Z,30.82
2019-06-26T12:24:30.020Z,30.95
2019-06-26T12:25:29.977Z,30.99
2019-06-26T12:26:29.978Z,31.02
2019-06-26T12:27:29.957Z,30.82
2019-06-26T12:28:29.945Z,30.58
2019-06-26T12:29:32.917Z,30.56
2019-06-26T12:30:29.920Z,30.52
2019-06-26T12:31:29.916Z,30.37
2019-06-26T12:32:29.913Z,30.21
2019-06-26T12:33:29.901Z,30.51
2019-06-26T12:34:30.207Z,30.64
2019-06-26T12:35:29.864Z,30.74
2019-06-26T12:36:29.864Z,31.08
2019-06-26T12:37:37.792Z,30.93
2019-06-26T12:38:30.839Z,30.85
2019-06-26T12:39:29.864Z,30.85
2019-06-26T12:40:31.306Z,30.86
2019-06-26T12:41:29.809Z,30.90
2019-06-26T12:42:29.789Z,30.93
2019-06-26T12:43:29.783Z,30.90
2019-06-26T12:44:29.793Z,30.64
2019-06-26T12:45:29.763Z,30.59
2019-06-26T12:46:29.750Z,30.62
2019-06-26T12:47:29.750Z,30.71
2019-06-26T12:48:29.728Z,30.67
2019-06-26T12:49:29.753Z,30.70
2019-06-26T12:50:35.247Z,30.64
2019-06-26T12:51:30.702Z,30.53
2019-06-26T12:52:29.685Z,30.65
2019-06-26T12:53:29.680Z,30.70
2019-06-26T12:54:29.709Z,30.82
2019-06-26T12:55:32.914Z,30.60